Dendermonde, Belgium
Current Conditions -  °F | °C
As of 11:20 AM on Monday 26 Jan 2015 (Local Time) from EBAW Reporting Station
Haze Haze  
Wind Chill: 40°   Ceiling: 400
Heat Index: 45°   Visibility: 1.5mi
Dew Point: 43°   Wind: 8mph
Humidity: 93%   Direction: 230°SW
Pressure: 30.12"   Gusts: NA
Location:  51.03°N, 4.1°E
Report Text: EBAW 261020Z 23007KT 200V260 2400 BR SCT003 BKN004 07/06 Q1020 NOSIG
Loading
Personal Weather Stations






























Interactive Weather Map New forecast layout! Learn more

10-Day Weather Forecast

Advertisements
Track Severe Weather on mobile